createdAt,value
2022-09-23T00:01:04.579Z,57.18
2022-09-23T00:03:33.112Z,57.65
2022-09-23T00:06:01.942Z,57.07
2022-09-23T00:08:29.145Z,56.91
2022-09-23T00:10:56.432Z,57.28
2022-09-23T00:13:23.807Z,57.01
2022-09-23T00:15:52.144Z,56.73
2022-09-23T00:18:20.708Z,56.68
2022-09-23T00:20:48.101Z,57.32
2022-09-23T00:23:15.000Z,57.36
2022-09-23T00:25:41.806Z,57.08
2022-09-23T00:28:08.693Z,57.13
2022-09-23T00:30:35.675Z,57.30
2022-09-23T00:33:04.026Z,57.28
2022-09-23T00:35:30.665Z,56.95
2022-09-23T00:37:57.304Z,57.45
2022-09-23T00:40:24.864Z,57.40
2022-09-23T00:42:52.094Z,57.78
2022-09-23T00:45:19.114Z,57.39
2022-09-23T00:47:48.289Z,57.34
2022-09-23T00:50:23.398Z,57.66
2022-09-23T00:52:52.787Z,57.73
2022-09-23T00:55:25.319Z,57.72
2022-09-23T00:57:54.603Z,57.71
2022-09-23T01:00:23.280Z,58.00
2022-09-23T01:02:50.837Z,57.68
2022-09-23T01:05:19.469Z,57.78
2022-09-23T01:07:46.975Z,57.22
2022-09-23T01:10:16.112Z,57.63
2022-09-23T01:13:08.598Z,57.34
2022-09-23T01:15:42.518Z,56.86
2022-09-23T01:18:21.311Z,56.13
2022-09-23T01:21:08.953Z,56.79
2022-09-23T01:24:15.545Z,57.31
2022-09-23T01:27:11.391Z,58.02
2022-09-23T01:29:48.901Z,58.26
2022-09-23T01:32:27.839Z,57.82
2022-09-23T01:35:01.444Z,57.83
2022-09-23T01:37:35.549Z,57.86
2022-09-23T01:40:11.167Z,58.06
2022-09-23T01:42:43.458Z,58.33
2022-09-23T01:45:17.690Z,58.35
2022-09-23T01:47:52.360Z,58.60
2022-09-23T01:50:40.022Z,58.94
2022-09-23T01:53:13.078Z,58.99
2022-09-23T01:55:47.566Z,59.07
2022-09-23T01:58:19.497Z,59.26
2022-09-23T02:00:53.942Z,59.22
2022-09-23T02:03:27.699Z,58.95
2022-09-23T02:05:59.692Z,59.15
2022-09-23T02:08:31.979Z,58.86
2022-09-23T02:11:04.820Z,58.92
2022-09-23T02:13:40.668Z,58.67
2022-09-23T02:16:14.194Z,58.78
2022-09-23T02:18:47.589Z,58.25
2022-09-23T02:21:16.714Z,58.53
2022-09-23T02:23:46.699Z,58.62
2022-09-23T02:26:20.610Z,58.53
2022-09-23T02:28:56.172Z,58.46
2022-09-23T02:31:31.340Z,58.49
2022-09-23T02:34:07.637Z,58.72
2022-09-23T02:36:44.846Z,58.13
2022-09-23T02:39:14.170Z,58.18
2022-09-23T02:41:51.407Z,58.32
2022-09-23T02:44:20.480Z,58.13
2022-09-23T02:46:50.357Z,57.74
2022-09-23T02:49:21.514Z,57.74
2022-09-23T02:51:48.899Z,57.69
2022-09-23T02:54:19.008Z,57.44
2022-09-23T02:56:45.771Z,57.45
2022-09-23T02:59:13.110Z,57.70
2022-09-23T03:01:53.064Z,58.19
2022-09-23T03:04:31.563Z,58.24
2022-09-23T03:07:06.169Z,58.29
2022-09-23T03:09:40.158Z,57.98
2022-09-23T03:12:15.673Z,58.45
2022-09-23T03:14:50.587Z,58.25
2022-09-23T03:17:25.134Z,58.74
2022-09-23T03:19:58.559Z,58.61
2022-09-23T03:22:30.216Z,58.58
2022-09-23T03:25:02.590Z,58.50
2022-09-23T03:27:32.731Z,58.46
2022-09-23T03:30:00.987Z,57.97
2022-09-23T03:32:29.280Z,57.69
2022-09-23T03:35:00.032Z,57.73
2022-09-23T03:37:32.497Z,57.96
2022-09-23T03:40:07.111Z,57.79
2022-09-23T03:42:35.139Z,57.64
2022-09-23T03:45:07.438Z,58.10
2022-09-23T03:47:34.209Z,58.44
2022-09-23T03:50:02.885Z,58.17
2022-09-23T03:52:29.528Z,58.23
2022-09-23T03:54:56.543Z,58.19
2022-09-23T03:57:23.375Z,58.38
2022-09-23T03:59:50.641Z,58.81
2022-09-23T04:02:17.926Z,58.71
2022-09-23T04:04:45.334Z,58.49
2022-09-23T04:07:14.175Z,58.55
2022-09-23T04:09:41.198Z,58.64
2022-09-23T04:12:11.810Z,58.85
2022-09-23T04:14:39.134Z,59.02
2022-09-23T04:17:05.752Z,59.02
2022-09-23T04:19:32.509Z,58.78
2022-09-23T04:21:59.092Z,58.75
2022-09-23T04:24:27.395Z,58.64
2022-09-23T04:26:55.667Z,58.46
2022-09-23T04:29:23.694Z,58.51
2022-09-23T04:31:51.581Z,58.70
2022-09-23T04:34:19.398Z,58.57
2022-09-23T04:36:47.687Z,58.95
2022-09-23T04:39:16.308Z,59.32
2022-09-23T04:41:45.372Z,59.38
2022-09-23T04:44:13.035Z,58.99
2022-09-23T04:46:39.991Z,59.07
2022-09-23T04:49:07.293Z,59.39
2022-09-23T04:51:34.062Z,58.97
2022-09-23T04:54:00.705Z,58.91
2022-09-23T04:56:29.357Z,58.91
2022-09-23T04:58:58.198Z,58.78
2022-09-23T05:01:27.082Z,58.96
2022-09-23T05:03:56.179Z,58.83
2022-09-23T05:06:23.497Z,59.03
2022-09-23T05:08:51.751Z,58.91
2022-09-23T05:11:18.937Z,58.91
2022-09-23T05:13:46.987Z,58.53
2022-09-23T05:16:15.578Z,58.25
2022-09-23T05:18:44.051Z,57.87
2022-09-23T05:21:12.764Z,58.15
2022-09-23T05:23:41.187Z,58.54
2022-09-23T05:26:09.619Z,58.26
2022-09-23T05:28:37.587Z,58.48
2022-09-23T05:31:05.779Z,58.68
2022-09-23T05:33:34.643Z,58.94
2022-09-23T05:36:02.275Z,58.67
2022-09-23T05:38:29.468Z,58.94
2022-09-23T05:40:57.001Z,58.69
2022-09-23T05:43:24.743Z,58.48
2022-09-23T05:45:51.708Z,58.57
2022-09-23T05:48:18.637Z,58.68
2022-09-23T05:50:51.356Z,58.33
2022-09-23T05:53:19.004Z,58.54
2022-09-23T05:55:46.219Z,58.86
2022-09-23T05:58:13.249Z,58.96
2022-09-23T06:00:40.929Z,59.01
2022-09-23T06:03:12.861Z,59.09
2022-09-23T06:05:39.908Z,59.05
2022-09-23T06:08:09.397Z,59.04
2022-09-23T06:10:36.994Z,59.32
2022-09-23T06:13:03.715Z,59.36
2022-09-23T06:15:30.395Z,59.35
2022-09-23T06:17:57.022Z,59.35
2022-09-23T06:20:23.692Z,59.25
2022-09-23T06:22:53.922Z,58.82
2022-09-23T06:25:23.206Z,58.17
2022-09-23T06:27:54.355Z,58.56
2022-09-23T06:30:21.106Z,58.32
2022-09-23T06:32:49.775Z,58.14
2022-09-23T06:35:26.302Z,58.12
2022-09-23T06:37:55.166Z,57.46
2022-09-23T06:40:25.721Z,57.97
2022-09-23T06:42:58.382Z,57.67
2022-09-23T06:45:25.506Z,57.51
2022-09-23T06:47:56.102Z,57.22
2022-09-23T06:50:24.368Z,57.27
2022-09-23T06:52:52.531Z,57.22
2022-09-23T06:55:19.140Z,57.43
2022-09-23T06:57:47.115Z,56.85
2022-09-23T07:00:14.392Z,56.86
2022-09-23T07:02:42.328Z,56.24
2022-09-23T07:05:09.433Z,56.70
2022-09-23T07:07:39.568Z,56.60
2022-09-23T07:10:07.077Z,56.84
2022-09-23T07:12:34.124Z,56.96
2022-09-23T07:15:02.119Z,56.00
2022-09-23T07:17:29.001Z,56.43
2022-09-23T07:19:55.826Z,56.95
2022-09-23T07:22:24.318Z,55.99
2022-09-23T07:24:51.268Z,56.39
2022-09-23T07:27:19.870Z,56.21
2022-09-23T07:29:50.693Z,56.21
2022-09-23T07:32:19.822Z,56.17
2022-09-23T07:34:47.409Z,56.16
2022-09-23T07:37:14.532Z,55.81
2022-09-23T07:39:42.092Z,55.58
2022-09-23T07:42:08.888Z,55.32
2022-09-23T07:44:35.747Z,54.91
2022-09-23T07:47:02.585Z,54.70
2022-09-23T07:49:30.621Z,54.31
2022-09-23T07:51:57.482Z,54.05
2022-09-23T07:54:25.644Z,53.78
2022-09-23T07:56:52.331Z,53.43
2022-09-23T07:59:19.026Z,52.86
2022-09-23T08:01:48.462Z,52.84
2022-09-23T08:04:17.764Z,52.49
2022-09-23T08:06:48.432Z,51.34
2022-09-23T08:09:16.473Z,51.81
2022-09-23T08:11:43.077Z,50.99
2022-09-23T08:14:10.366Z,51.46
2022-09-23T08:16:37.316Z,51.06
2022-09-23T08:21:39.413Z,50.17
2022-09-23T08:24:08.068Z,50.04
2022-09-23T08:26:34.862Z,50.20
2022-09-23T08:29:01.549Z,49.95
2022-09-23T08:31:28.318Z,49.98
2022-09-23T08:33:56.301Z,49.67
2022-09-23T08:36:23.103Z,48.57
2022-09-23T08:38:50.204Z,47.76
2022-09-23T08:41:26.152Z,47.99
2022-09-23T08:43:56.327Z,48.34
2022-09-23T08:46:31.294Z,47.84
2022-09-23T08:49:00.217Z,47.69
2022-09-23T08:51:33.283Z,47.25
2022-09-23T08:54:00.456Z,46.70
2022-09-23T08:56:30.921Z,47.23
2022-09-23T08:59:07.504Z,46.33
2022-09-23T09:01:40.933Z,45.31
2022-09-23T09:04:16.566Z,45.80
2022-09-23T09:06:53.449Z,45.27
2022-09-23T09:09:25.933Z,43.83
2022-09-23T09:12:03.970Z,43.07
2022-09-23T09:14:37.569Z,43.54
2022-09-23T09:17:09.412Z,43.84
2022-09-23T09:19:56.256Z,44.20
2022-09-23T09:22:37.440Z,43.05
2022-09-23T09:25:14.415Z,43.39
2022-09-23T09:27:43.347Z,42.88
2022-09-23T09:30:14.464Z,41.99
2022-09-23T09:32:47.362Z,42.83
2022-09-23T09:35:25.425Z,42.84
2022-09-23T09:37:53.546Z,41.99
2022-09-23T09:40:21.054Z,42.26
2022-09-23T09:42:51.080Z,41.78
2022-09-23T09:45:27.941Z,41.85
2022-09-23T09:48:03.526Z,41.31
2022-09-23T09:50:47.363Z,41.61
2022-09-23T09:53:25.675Z,42.05
2022-09-23T09:56:04.867Z,42.09
2022-09-23T09:58:46.580Z,40.72
2022-09-23T10:01:21.715Z,40.64
2022-09-23T10:03:51.445Z,40.81
2022-09-23T10:06:24.487Z,41.01
2022-09-23T10:09:15.151Z,41.04
2022-09-23T10:11:42.572Z,41.37
2022-09-23T10:14:19.218Z,41.10
2022-09-23T10:16:49.026Z,40.31
2022-09-23T10:19:25.505Z,40.28
2022-09-23T10:21:56.750Z,38.18
2022-09-23T10:24:27.554Z,39.39
2022-09-23T10:27:00.284Z,40.31
2022-09-23T10:29:32.483Z,39.12
2022-09-23T10:32:20.516Z,39.61
2022-09-23T10:34:48.850Z,39.51
2022-09-23T10:37:17.203Z,40.25
2022-09-23T10:40:03.044Z,39.53
2022-09-23T10:43:11.408Z,37.29
2022-09-23T10:45:59.640Z,37.44
2022-09-23T10:48:36.228Z,38.48
2022-09-23T10:51:12.195Z,38.90
2022-09-23T10:53:53.999Z,39.17
2022-09-23T10:56:31.900Z,38.28
2022-09-23T10:59:29.141Z,38.29
2022-09-23T11:02:15.418Z,38.44
2022-09-23T11:05:03.137Z,38.39
2022-09-23T11:07:37.359Z,37.95
2022-09-23T11:10:46.567Z,39.06
2022-09-23T11:13:24.921Z,37.96
2022-09-23T11:16:05.249Z,38.87
2022-09-23T11:18:51.479Z,39.09
2022-09-23T11:21:57.354Z,38.64
2022-09-23T11:24:49.005Z,37.08
2022-09-23T11:27:26.929Z,37.75
2022-09-23T11:30:06.609Z,38.13
2022-09-23T11:32:51.412Z,37.77
2022-09-23T11:35:24.530Z,37.49
2022-09-23T11:37:56.516Z,38.07
2022-09-23T11:40:30.107Z,37.52
2022-09-23T11:43:01.764Z,36.47
2022-09-23T11:45:32.890Z,36.73
2022-09-23T11:48:06.036Z,36.72
2022-09-23T11:50:38.159Z,36.70
2022-09-23T11:53:11.698Z,37.07
2022-09-23T11:55:54.566Z,37.33
2022-09-23T11:58:29.825Z,36.65
2022-09-23T12:01:01.659Z,36.82
2022-09-23T12:03:43.951Z,36.50
2022-09-23T12:06:18.691Z,36.64
2022-09-23T12:08:45.612Z,36.42
2022-09-23T12:11:21.901Z,36.74
2022-09-23T12:13:55.097Z,36.83
2022-09-23T12:16:57.988Z,36.93
2022-09-23T12:19:38.762Z,36.49
2022-09-23T12:22:24.136Z,35.94
2022-09-23T12:24:56.775Z,36.26
2022-09-23T12:27:33.968Z,36.38
2022-09-23T12:30:03.364Z,36.52
2022-09-23T12:32:31.233Z,36.13
2022-09-23T12:35:00.644Z,36.37
2022-09-23T12:37:35.066Z,36.55
2022-09-23T12:40:09.481Z,36.01
2022-09-23T12:42:44.886Z,36.09
2022-09-23T12:45:34.995Z,36.05
2022-09-23T12:48:03.200Z,36.30
2022-09-23T12:50:54.021Z,36.59
2022-09-23T12:53:54.262Z,36.56
2022-09-23T12:56:26.206Z,36.82
2022-09-23T12:59:01.013Z,36.99
2022-09-23T13:01:28.773Z,37.10
2022-09-23T13:04:16.708Z,37.13
2022-09-23T13:06:51.744Z,37.09
2022-09-23T13:09:25.032Z,37.10
2022-09-23T13:11:59.982Z,36.96
2022-09-23T13:14:28.733Z,37.30
2022-09-23T13:16:58.399Z,37.51
2022-09-23T13:19:45.238Z,37.53
2022-09-23T13:22:12.798Z,37.76
2022-09-23T13:24:44.908Z,37.94
2022-09-23T13:27:20.443Z,38.09
2022-09-23T13:29:52.139Z,37.74
2022-09-23T13:32:21.635Z,38.02
2022-09-23T13:34:58.187Z,38.07
2022-09-23T13:37:29.963Z,37.97
2022-09-23T13:40:08.130Z,38.10
2022-09-23T13:42:40.078Z,38.36
2022-09-23T13:45:15.405Z,38.35
2022-09-23T13:47:42.912Z,38.70
2022-09-23T13:50:16.802Z,38.88
2022-09-23T13:52:43.615Z,38.94
2022-09-23T13:55:25.086Z,39.02
2022-09-23T13:57:59.897Z,39.21
2022-09-23T14:00:35.223Z,39.24
2022-09-23T14:03:02.602Z,39.43
2022-09-23T14:05:34.333Z,39.38
2022-09-23T14:08:02.505Z,39.76
2022-09-23T14:10:31.062Z,39.94
2022-09-23T14:12:59.423Z,39.95
2022-09-23T14:15:26.627Z,39.49
2022-09-23T14:18:02.198Z,39.91
2022-09-23T14:20:29.022Z,40.13
2022-09-23T14:23:11.999Z,39.73
2022-09-23T14:25:40.126Z,40.21
2022-09-23T14:28:12.653Z,40.04
2022-09-23T14:30:39.598Z,40.24
2022-09-23T14:33:09.590Z,39.98
2022-09-23T14:35:42.312Z,39.84
2022-09-23T14:38:28.342Z,40.00
2022-09-23T14:41:15.663Z,39.97
2022-09-23T14:43:49.383Z,40.04
2022-09-23T14:46:18.808Z,40.07
2022-09-23T14:48:54.045Z,40.18
2022-09-23T14:51:21.085Z,40.49
2022-09-23T14:53:48.633Z,40.61
2022-09-23T14:56:20.873Z,40.30
2022-09-23T14:58:53.184Z,40.19
2022-09-23T15:01:38.825Z,40.38
2022-09-23T15:04:17.277Z,40.23
2022-09-23T15:06:48.895Z,40.05
2022-09-23T15:09:20.647Z,39.92
2022-09-23T15:11:47.576Z,40.01
2022-09-23T15:14:36.711Z,40.35
2022-09-23T15:17:06.827Z,40.02
2022-09-23T15:19:35.540Z,39.84
2022-09-23T15:22:02.428Z,40.15
2022-09-23T15:24:42.436Z,39.79
2022-09-23T15:27:27.777Z,39.86
2022-09-23T15:30:01.106Z,39.87
2022-09-23T15:32:27.888Z,39.74
2022-09-23T15:34:54.517Z,39.67
2022-09-23T15:37:21.235Z,39.69
2022-09-23T15:39:49.178Z,39.68
2022-09-23T15:42:18.487Z,39.89
2022-09-23T15:44:45.185Z,40.36
2022-09-23T15:47:18.541Z,40.09
2022-09-23T15:49:48.648Z,40.31
2022-09-23T15:52:16.387Z,40.05
2022-09-23T15:54:43.794Z,40.19
2022-09-23T15:57:11.137Z,40.72
2022-09-23T15:59:38.102Z,41.05
2022-09-23T16:02:14.791Z,41.01
2022-09-23T16:04:42.967Z,41.47
2022-09-23T16:07:14.334Z,41.12
2022-09-23T16:09:41.164Z,41.01
2022-09-23T16:12:10.721Z,41.06
2022-09-23T16:14:37.503Z,41.21
2022-09-23T16:17:05.185Z,41.26
2022-09-23T16:19:34.126Z,41.43
2022-09-23T16:22:04.289Z,41.51
2022-09-23T16:24:30.970Z,41.71
2022-09-23T16:27:00.057Z,41.91
2022-09-23T16:29:27.547Z,42.01
2022-09-23T16:31:55.675Z,42.22
2022-09-23T16:34:22.416Z,42.33
2022-09-23T16:36:49.271Z,42.57
2022-09-23T16:39:20.108Z,42.65
2022-09-23T16:41:46.851Z,42.66
2022-09-23T16:44:14.624Z,42.81
2022-09-23T16:46:42.422Z,43.09
2022-09-23T16:49:11.943Z,43.61
2022-09-23T16:51:38.958Z,43.81
2022-09-23T16:54:10.385Z,43.95
2022-09-23T16:56:43.986Z,44.21
2022-09-23T16:59:11.243Z,44.57
2022-09-23T17:01:56.647Z,44.65
2022-09-23T17:04:23.332Z,44.69
2022-09-23T17:06:52.060Z,44.96
2022-09-23T17:09:19.917Z,44.96
2022-09-23T17:11:56.295Z,45.12
2022-09-23T17:14:22.929Z,45.29
2022-09-23T17:16:49.719Z,45.29
2022-09-23T17:19:16.360Z,45.59
2022-09-23T17:21:43.027Z,45.90
2022-09-23T17:24:10.188Z,46.21
2022-09-23T17:26:38.219Z,46.40
2022-09-23T17:29:06.296Z,46.63
2022-09-23T17:31:33.083Z,46.64
2022-09-23T17:34:00.777Z,47.07
2022-09-23T17:36:27.949Z,47.21
2022-09-23T17:38:54.660Z,47.20
2022-09-23T17:41:21.946Z,47.55
2022-09-23T17:43:53.709Z,47.70
2022-09-23T17:46:21.846Z,48.06
2022-09-23T17:48:49.008Z,48.23
2022-09-23T17:51:18.060Z,48.43
2022-09-23T17:53:45.373Z,48.55
2022-09-23T17:56:14.450Z,49.14
2022-09-23T17:58:40.985Z,48.98
2022-09-23T18:01:09.249Z,49.50
2022-09-23T18:03:37.786Z,50.09
2022-09-23T18:06:10.525Z,49.90
2022-09-23T18:08:37.916Z,50.11
2022-09-23T18:11:17.650Z,50.64
2022-09-23T18:13:48.395Z,50.72
2022-09-23T18:16:15.100Z,50.39
2022-09-23T18:18:43.231Z,50.74
2022-09-23T18:21:10.372Z,50.56
2022-09-23T18:23:37.407Z,50.95
2022-09-23T18:26:04.988Z,51.13
2022-09-23T18:28:34.857Z,51.75
2022-09-23T18:31:01.956Z,51.96
2022-09-23T18:33:28.615Z,52.15
2022-09-23T18:35:59.242Z,52.35
2022-09-23T18:38:25.860Z,52.38
2022-09-23T18:40:56.218Z,52.34
2022-09-23T18:43:25.847Z,52.68
2022-09-23T18:45:57.346Z,52.77
2022-09-23T18:48:43.202Z,53.28
2022-09-23T18:51:12.424Z,53.23
2022-09-23T18:53:40.876Z,53.01
2022-09-23T18:56:09.347Z,53.13
2022-09-23T18:58:36.165Z,52.77
2022-09-23T19:01:07.877Z,53.14
2022-09-23T19:03:35.348Z,52.93
2022-09-23T19:06:03.988Z,53.25
2022-09-23T19:08:32.462Z,53.22
2022-09-23T19:11:02.938Z,53.48
2022-09-23T19:13:29.828Z,53.87
2022-09-23T19:16:01.354Z,53.61
2022-09-23T19:18:29.017Z,53.77
2022-09-23T19:21:02.543Z,53.76
2022-09-23T19:23:34.995Z,53.63
2022-09-23T19:26:03.429Z,53.20
2022-09-23T19:28:30.272Z,53.35
2022-09-23T19:30:57.328Z,53.73
2022-09-23T19:33:24.142Z,53.86
2022-09-23T19:35:53.557Z,53.65
2022-09-23T19:38:21.375Z,54.01
2022-09-23T19:40:51.654Z,54.11
2022-09-23T19:43:21.299Z,54.34
2022-09-23T19:45:53.187Z,54.08
2022-09-23T19:48:19.881Z,54.30
2022-09-23T19:50:47.075Z,54.69
2022-09-23T19:53:14.237Z,54.45
2022-09-23T19:55:41.263Z,54.78
2022-09-23T19:58:09.359Z,54.72
2022-09-23T20:00:36.274Z,54.79
2022-09-23T20:03:03.276Z,54.72
2022-09-23T20:05:30.040Z,54.72
2022-09-23T20:07:56.689Z,54.80
2022-09-23T20:10:23.340Z,54.85
2022-09-23T20:12:50.111Z,54.80
2022-09-23T20:15:18.781Z,54.78
2022-09-23T20:17:45.431Z,54.58
2022-09-23T20:20:13.450Z,54.76
2022-09-23T20:22:40.097Z,55.16
2022-09-23T20:25:13.262Z,55.03
2022-09-23T20:27:40.764Z,55.26
2022-09-23T20:30:08.486Z,55.15
2022-09-23T20:32:36.913Z,55.35
2022-09-23T20:35:04.049Z,55.69
2022-09-23T20:37:30.825Z,55.64
2022-09-23T20:39:57.476Z,55.61
2022-09-23T20:42:24.280Z,55.84
2022-09-23T20:44:51.171Z,55.74
2022-09-23T20:47:19.020Z,55.82
2022-09-23T20:49:48.997Z,55.53
2022-09-23T20:52:17.990Z,55.70
2022-09-23T20:54:45.000Z,56.08
2022-09-23T20:57:14.059Z,56.08
2022-09-23T20:59:40.800Z,56.17
2022-09-23T21:02:07.910Z,56.01
2022-09-23T21:04:34.946Z,55.65
2022-09-23T21:07:03.261Z,55.85
2022-09-23T21:09:32.699Z,55.86
2022-09-23T21:11:59.499Z,55.85
2022-09-23T21:14:26.176Z,55.87
2022-09-23T21:16:54.754Z,55.74
2022-09-23T21:19:21.711Z,55.99
2022-09-23T21:21:48.398Z,56.03
2022-09-23T21:24:45.605Z,56.18
2022-09-23T21:27:03.908Z,55.88
2022-09-23T21:29:30.554Z,56.02
2022-09-23T21:31:57.492Z,56.05
2022-09-23T21:34:28.122Z,55.92
2022-09-23T21:36:55.407Z,56.12
2022-09-23T21:39:23.505Z,56.12
2022-09-23T21:41:51.248Z,56.32
2022-09-23T21:44:17.938Z,56.45
2022-09-23T21:46:44.657Z,56.74
2022-09-23T21:49:11.407Z,57.19
2022-09-23T21:51:42.395Z,57.08
2022-09-23T21:54:12.417Z,56.88
2022-09-23T21:56:40.493Z,56.73
2022-09-23T21:59:10.417Z,56.82
2022-09-23T22:01:38.728Z,56.50
2022-09-23T22:04:09.223Z,56.71
2022-09-23T22:06:38.358Z,56.77
2022-09-23T22:09:08.893Z,56.09
2022-09-23T22:11:55.315Z,56.07
2022-09-23T22:14:27.455Z,55.85
2022-09-23T22:16:59.079Z,55.83
2022-09-23T22:19:27.666Z,56.01
2022-09-23T22:21:55.818Z,55.91
2022-09-23T22:24:22.624Z,55.92
2022-09-23T22:26:49.318Z,56.12
2022-09-23T22:29:34.994Z,56.07
2022-09-23T22:32:23.472Z,56.44
2022-09-23T22:34:51.988Z,56.90
2022-09-23T22:37:21.265Z,57.17
2022-09-23T22:39:47.924Z,57.43
2022-09-23T22:42:14.778Z,57.67
2022-09-23T22:44:43.246Z,57.06
2022-09-23T22:47:11.276Z,56.87
2022-09-23T22:49:37.943Z,56.81
2022-09-23T22:52:09.284Z,56.88
2022-09-23T22:54:36.376Z,56.56
2022-09-23T22:57:05.809Z,56.77
2022-09-23T22:59:32.750Z,56.86
2022-09-23T23:02:00.095Z,57.24
2022-09-23T23:04:29.759Z,57.30
2022-09-23T23:06:56.930Z,57.01
2022-09-23T23:09:23.576Z,56.59
2022-09-23T23:11:50.270Z,56.52
2022-09-23T23:14:18.162Z,56.33
2022-09-23T23:16:46.099Z,56.17
2022-09-23T23:19:14.563Z,56.33
2022-09-23T23:21:45.803Z,56.17
2022-09-23T23:24:15.967Z,56.34
2022-09-23T23:26:43.309Z,56.16
2022-09-23T23:29:10.670Z,56.08
2022-09-23T23:31:37.809Z,56.50
2022-09-23T23:34:04.614Z,55.97
2022-09-23T23:36:31.423Z,56.00
2022-09-23T23:38:59.477Z,56.24
2022-09-23T23:41:26.134Z,56.45
2022-09-23T23:43:55.053Z,56.11
2022-09-23T23:46:25.427Z,55.89
2022-09-23T23:48:53.316Z,55.80
2022-09-23T23:51:20.872Z,55.44
2022-09-23T23:53:48.271Z,55.37
2022-09-23T23:56:18.048Z,55.16
2022-09-23T23:58:45.390Z,55.17
